Latest Weather Observations for Cape Jaffa

IDS60801

Issued at 2:35 pm CST Thursday 28 August 2014 (issued every 30 minutes, with the page automatically refreshed every 10 minutes)

About weather observations | Map of weather stations | Latest weather observations for SA | Other Formats
Station Details ID: 026095 Name: THE LIMESTONE Lat: -36.97 Lon: 139.72 Height: 17.0 m
Data from the previous 72 hours. | See also: Recent months at Cape Jaffa
Date/Time
CST
Temp
°C
App
Temp
°C
Dew
Point
Rel
Hum
%
Delta-T
°C
Wind Press
QNH
hPa
Press
MSL
hPa
Rain
since 9 am
mm
Dir
 
Spd
km/h
Gust
km/h
Spd
kts
Gust
kts
28/02:30pm 17.9 15.2 10.5 62 3.9 NNW 15 19 8 10 1027.1 1027.1 0.0
28/02:00pm 17.4 14.3 10.3 63 3.8 NNW 17 22 9 12 1027.1 1027.1 0.0
28/01:30pm 16.7 13.4 10.8 68 3.1 NNW 19 24 10 13 1027.2 1027.2 0.0
28/01:00pm 17.2 13.9 11.0 67 3.3 N 19 22 10 12 1027.5 1027.5 0.0
28/12:30pm 16.6 13.2 10.5 67 3.2 N 19 22 10 12 1027.8 1027.8 0.0
28/12:00pm 16.6 13.1 10.9 69 3.0 N 20 24 11 13 1028.1 1028.1 0.0
28/11:30am 16.2 13.0 10.1 67 3.2 N 17 20 9 11 1028.6 1028.6 0.0
28/11:00am 16.1 13.1 10.8 71 2.8 N 17 20 9 11 1028.8 1028.8 0.0
28/10:30am 15.4 12.3 10.2 71 2.7 N 17 20 9 11 1028.9 1028.9 0.0
28/10:00am 14.8 12.1 10.2 74 2.4 N 15 19 8 10 1029.0 1029.0 0.0
28/09:30am 14.3 12.1 10.7 79 1.9 NNE 13 17 7 9 1029.1 1029.1 0.0
28/09:00am 13.6 12.4 11.5 87 1.1 NNE 9 13 5 7 1029.1 1029.1 0.0
28/08:30am 11.0 9.5 9.1 88 0.9 NE 7 9 4 5 1029.1 1029.1 0.0
28/08:00am 8.8 6.4 7.1 89 0.8 E 9 11 5 6 1029.1 1029.1 0.0
28/07:30am 7.8 4.9 6.3 90 0.7 E 11 11 6 6 1028.9 1028.9 0.0
28/07:00am 7.7 5.1 6.2 90 0.7 ENE 9 9 5 5 1028.7 1028.7 0.0
28/06:30am 7.7 5.1 6.3 91 0.6 E 9 9 5 5 1028.3 1028.3 0.0
28/06:00am 7.4 4.4 5.9 90 0.7 ENE 11 11 6 6 1028.0 1028.0 0.0
28/05:30am 6.9 3.8 5.4 90 0.7 ENE 11 11 6 6 1027.7 1027.7 0.0
28/05:00am 7.4 4.7 5.7 89 0.8 ENE 9 13 5 7 1027.5 1027.5 0.0
28/04:30am 8.2 5.7 6.5 89 0.8 ENE 9 9 5 5 1027.5 1027.5 0.0
28/04:00am 8.2 5.7 6.7 90 0.7 E 9 9 5 5 1027.4 1027.4 0.0
28/03:30am 8.3 5.9 6.8 90 0.7 E 9 9 5 5 1027.3 1027.3 0.0
28/03:00am 8.1 5.6 6.6 90 0.7 E 9 11 5 6 1027.6 1027.6 0.0
28/02:30am 8.3 5.9 6.9 91 0.6 E 9 11 5 6 1027.7 1027.7 0.0
28/02:00am 8.1 5.2 6.7 91 0.6 E 11 11 6 6 1027.9 1027.9 0.0
28/01:30am 8.5 5.7 7.1 91 0.6 E 11 11 6 6 1028.1 1028.1 0.0
28/01:00am 8.2 5.0 6.7 90 0.7 E 13 13 7 7 1028.2 1028.2 0.0
28/12:30am 8.4 5.5 6.7 89 0.8 E 11 13 6 7 1028.2 1028.2 0.0
28/12:00am 8.9 6.2 7.4 90 0.7 E 11 11 6 6 1028.4 1028.4 0.0
 
Date/Time
CST
Temp
°C
App
Temp
°C
Dew
Point
Rel
Hum
%
Delta-T
°C
Wind Press
QNH
hPa
Press
MSL
hPa
Rain
since 9 am
mm
Dir
 
Spd
km/h
Gust
km/h
Spd
kts
Gust
kts
27/11:30pm 9.2 6.9 7.5 89 0.8 ESE 9 11 5 6 1028.5 1028.5 0.0
27/11:00pm 8.6 6.1 6.6 87 0.9 ESE 9 11 5 6 1028.6 1028.6 0.0
27/10:30pm 8.6 6.4 6.2 85 1.1 E 7 9 4 5 1028.7 1028.7 0.0
27/10:00pm 11.4 9.4 6.9 74 2.1 SSE 7 9 4 5 1028.5 1028.5 0.0
27/09:30pm 11.7 9.7 7.2 74 2.1 S 7 9 4 5 1028.4 1028.4 0.0
27/09:00pm 11.8 10.1 8.3 79 1.7 SSE 7 7 4 4 1028.2 1028.2 0.0
27/08:30pm 11.4 10.0 9.0 85 1.2 SSE 6 7 3 4 1028.1 1028.1 0.0
27/08:00pm 11.5 10.0 9.2 86 1.2 S 7 7 4 4 1028.1 1028.1 0.0
27/07:30pm 11.3 9.6 9.7 90 0.8 S 9 9 5 5 1027.9 1027.9 0.0
27/07:00pm 10.5 8.2 8.9 90 0.8 S 11 11 6 6 1027.6 1027.6 0.0
27/06:30pm 11.3 9.5 9.4 88 0.9 S 9 9 5 5 1027.4 1027.4 0.0
27/06:00pm 11.5 9.6 9.2 86 1.1 SSW 9 11 5 6 1027.3 1027.3 0.0
27/05:30pm 13.2 12.0 9.5 78 1.9 SW 6 7 3 4 1027.1 1027.1 0.0
27/05:00pm 15.4 13.8 8.6 64 3.5 W 7 7 4 4 1027.0 1027.0 0.0
27/04:30pm 16.8 15.5 9.2 61 3.9 WNW 6 7 3 4 1026.6 1026.6 0.0
27/04:00pm 17.1 15.4 8.5 57 4.4 WNW 7 9 4 5 1026.6 1026.6 0.0
27/03:30pm 17.1 15.4 8.5 57 4.4 NW 7 11 4 6 1026.6 1026.6 0.0
27/03:00pm 16.8 15.3 9.0 60 4.0 NW 7 9 4 5 1026.7 1026.7 0.0
27/02:30pm 16.6 15.5 10.5 67 3.2 NNW 7 11 4 6 1026.7 1026.7 0.0
27/02:00pm 15.7 13.4 8.9 64 3.5 NNW 11 13 6 7 1026.6 1026.6 0.0
27/01:30pm 16.4 13.7 9.1 62 3.7 N 13 15 7 8 1026.4 1026.4 0.0
27/01:00pm 16.1 13.9 9.3 64 3.5 N 11 17 6 9 1026.8 1026.8 0.0
27/12:30pm 15.9 14.0 10.4 70 2.9 N 11 15 6 8 1027.1 1027.1 0.0
27/12:00pm 15.7 13.7 10.2 70 2.9 N 11 17 6 9 1027.5 1027.5 0.0
27/11:30am 15.2 13.1 9.8 70 2.8 N 11 15 6 8 1028.0 1028.0 0.0
27/11:00am 15.0 13.0 10.0 72 2.6 N 11 15 6 8 1028.2 1028.2 0.0
27/10:30am 14.2 12.0 9.4 73 2.4 N 11 15 6 8 1028.2 1028.2 0.0
27/10:00am 13.9 11.6 9.1 73 2.4 NNE 11 15 6 8 1028.1 1028.1 0.0
27/09:30am 12.6 11.0 8.7 77 1.9 NNE 7 11 4 6 1028.3 1028.3 0.0
27/09:00am 11.5 9.7 9.4 87 1.0 NE 9 11 5 6 1028.2 1028.2 0.4
27/08:30am 9.9 7.8 8.3 90 0.8 ENE 9 13 5 7 1027.8 1027.8 0.4
27/08:00am 7.8 5.8 6.9 94 0.4 E 7 9 4 5 1027.6 1027.6 0.4
27/07:30am 6.6 3.6 5.9 95 0.3 E 11 13 6 7 1027.2 1027.2 0.4
27/07:00am 5.7 2.9 5.0 95 0.3 E 9 11 5 6 1027.0 1027.0 0.4
27/06:30am 5.4 2.9 4.7 95 0.3 E 7 9 4 5 1026.8 1026.8 0.2
27/06:00am 4.5 0.6 3.6 94 0.4 E 13 15 7 8 1025.9 1025.9 0.2
27/05:30am 4.8 0.2 3.9 94 0.4 E 17 20 9 11 1025.6 1025.6 0.2
27/05:00am 5.5 1.1 4.8 95 0.3 ENE 17 19 9 10 1025.7 1025.7 0.2
27/04:30am 4.6 0.8 3.7 94 0.4 E 13 15 7 8 1025.8 1025.8 0.2
27/04:00am 4.1 0.2 3.2 94 0.4 E 13 15 7 8 1025.7 1025.7 0.2
27/03:30am 4.0 0.4 3.0 93 0.4 E 11 13 6 7 1025.8 1025.8 0.2
27/03:00am 7.3 4.7 6.2 93 0.5 E 9 9 5 5 1026.0 1026.0 0.0
27/02:30am 8.8 7.0 7.9 94 0.4 SE 7 7 4 4 1026.1 1026.1 0.0
27/02:00am 8.0 5.9 6.8 92 0.6 ESE 7 9 4 5 1026.0 1026.0 0.0
27/01:30am 8.5 6.5 7.1 91 0.7 ESE 7 9 4 5 1026.0 1026.0 0.0
27/01:00am 8.1 6.6 6.7 91 0.6 SSE 4 6 2 3 1026.4 1026.4 0.0
27/12:30am 7.7 5.7 6.2 90 0.7 ESE 6 7 3 4 1026.3 1026.3 0.0
27/12:00am 8.8 6.9 7.6 92 0.6 SSE 7 7 4 4 1026.2 1026.2 0.0
 
Date/Time
CST
Temp
°C
App
Temp
°C
Dew
Point
Rel
Hum
%
Delta-T
°C
Wind Press
QNH
hPa
Press
MSL
hPa
Rain
since 9 am
mm
Dir
 
Spd
km/h
Gust
km/h
Spd
kts
Gust
kts
26/11:30pm 8.9 6.5 7.2 89 0.8 SSE 9 9 5 5 1026.2 1026.2 0.0
26/11:00pm 9.2 7.3 7.5 89 0.8 SSE 7 9 4 5 1026.2 1026.2 0.0
26/10:30pm 9.9 8.4 8.3 90 0.8 SSE 6 7 3 4 1026.3 1026.3 0.0
26/10:00pm 9.0 7.0 7.3 89 0.8 SSE 7 9 4 5 1026.4 1026.4 0.0
26/09:30pm 8.9 6.6 7.5 91 0.7 S 9 11 5 6 1026.4 1026.4 0.0
26/09:00pm 8.9 5.9 7.7 92 0.6 S 13 13 7 7 1026.5 1026.5 0.0
26/08:30pm 8.1 4.8 6.6 90 0.7 S 13 15 7 8 1026.4 1026.4 0.0
26/08:00pm 9.5 7.4 8.1 91 0.7 S 9 11 5 6 1026.3 1026.3 0.0
26/07:30pm 9.9 8.1 8.0 88 0.9 S 7 7 4 4 1026.0 1026.0 0.0
26/07:00pm 10.0 7.9 8.1 88 0.9 S 9 9 5 5 1025.9 1025.9 0.0
26/06:30pm 9.8 7.5 7.6 86 1.0 SSW 9 9 5 5 1025.8 1025.8 0.0
26/06:00pm 10.8 9.2 8.0 83 1.4 SW 6 7 3 4 1025.5 1025.5 0.0
26/05:30pm 11.6 10.1 8.5 81 1.5 SW 6 7 3 4 1025.4 1025.4 0.0
26/05:00pm 13.0 11.7 9.1 77 2.0 WSW 6 7 3 4 1025.3 1025.3 0.0
26/04:30pm 13.6 12.4 9.5 76 2.1 WSW 6 7 3 4 1025.2 1025.2 0.0
26/04:00pm 13.6 11.5 8.4 71 2.6 W 9 13 5 7 1025.2 1025.2 0.0
26/03:30pm 14.1 11.4 9.1 72 2.5 W 13 15 7 8 1025.4 1025.4 0.0
26/03:00pm 14.5 12.1 8.7 68 2.9 WNW 11 15 6 8 1025.5 1025.5 0.0
26/02:30pm 14.3 11.7 7.6 64 3.3 WNW 11 17 6 9 1025.7 1025.7 0.0
26/02:00pm 14.3 11.5 7.1 62 3.5 NW 11 15 6 8 1025.9 1025.9 0.0
26/01:30pm 14.5 12.1 8.7 68 2.9 NNW 11 15 6 8 1026.2 1026.2 0.0
26/01:00pm 14.3 12.2 8.3 67 3.0 NNW 9 13 5 7 1026.2 1026.2 0.0
26/12:30pm 14.1 12.0 8.1 67 3.0 N 9 15 5 8 1026.4 1026.4 0.0
26/12:00pm 13.5 11.2 7.3 66 3.0 N 9 13 5 7 1027.0 1027.0 0.0
26/11:30am 14.3 12.5 9.3 72 2.5 N 9 15 5 8 1027.4 1027.4 0.0
26/11:00am 13.8 12.4 9.0 73 2.4 NNE 6 11 3 6 1027.9 1027.9 0.0
26/10:30am 12.7 11.2 8.6 76 2.0 NE 6 11 3 6 1028.3 1028.3 0.0
26/10:00am 12.3 9.9 8.8 79 1.7 ENE 11 15 6 8 1028.5 1028.5 0.0
26/09:30am 11.2 8.7 8.1 81 1.5 ENE 11 13 6 7 1028.7 1028.7 0.0
26/09:00am 10.8 7.5 8.0 83 1.3 E 15 19 8 10 1028.8 1028.8 0.0
26/08:30am 10.6 7.7 8.2 85 1.2 E 13 19 7 10 1028.8 1028.8 0.0
26/08:00am 9.6 7.4 7.7 88 0.9 E 9 11 5 6 1028.7 1028.7 0.0
26/07:30am 8.2 5.0 6.7 90 0.7 E 13 17 7 9 1028.5 1028.5 0.0
26/07:00am 6.8 2.6 5.6 92 0.5 E 17 19 9 10 1028.1 1028.1 0.0
26/06:30am 7.0 3.6 5.8 92 0.5 E 13 17 7 9 1027.9 1027.9 0.0
26/06:00am 7.2 4.2 6.1 93 0.5 E 11 15 6 8 1027.7 1027.7 0.0
26/05:30am 7.1 4.1 5.9 92 0.5 E 11 15 6 8 1027.5 1027.5 0.0
26/05:00am 7.1 4.8 5.9 92 0.5 E 7 11 4 6 1027.5 1027.5 0.0
26/04:30am 7.2 5.0 6.0 92 0.5 ESE 7 9 4 5 1027.5 1027.5 0.0
26/04:00am 7.3 4.7 6.1 92 0.5 SE 9 11 5 6 1027.7 1027.7 0.0
26/03:30am 7.6 4.7 6.4 92 0.5 ESE 11 15 6 8 1027.8 1027.8 0.0
26/03:00am 7.6 5.1 6.4 92 0.5 ESE 9 13 5 7 1027.9 1027.9 0.0
26/02:30am 7.8 5.3 6.4 91 0.6 SE 9 13 5 7 1028.2 1028.2 0.0
26/02:00am 7.9 5.0 6.5 91 0.6 SE 11 13 6 7 1028.3 1028.3 0.0
26/01:30am 8.2 5.3 6.7 90 0.7 SE 11 15 6 8 1028.5 1028.5 0.0
26/01:00am 8.6 5.8 7.1 90 0.7 ESE 11 19 6 10 1028.6 1028.6 0.0
26/12:30am 8.8 5.7 7.1 89 0.8 ESE 13 17 7 9 1028.7 1028.7 0.0
26/12:00am 9.1 6.4 7.5 90 0.8 ESE 11 17 6 9 1028.9 1028.9 0.0
 
Date/Time
CST
Temp
°C
App
Temp
°C
Dew
Point
Rel
Hum
%
Delta-T
°C
Wind Press
QNH
hPa
Press
MSL
hPa
Rain
since 9 am
mm
Dir
 
Spd
km/h
Gust
km/h
Spd
kts
Gust
kts
25/11:30pm 8.5 5.7 7.0 90 0.7 SE 11 13 6 7 1029.0 1029.0 0.0
25/11:00pm 8.8 6.4 7.1 89 0.8 SSE 9 13 5 7 1029.1 1029.1 0.0
25/10:30pm 9.2 6.5 7.3 88 0.9 SSE 11 15 6 8 1029.2 1029.2 0.0
25/10:00pm 9.2 6.5 7.3 88 0.9 SSE 11 15 6 8 1029.3 1029.3 0.0
25/09:30pm 10.2 7.3 8.3 88 0.9 SSE 13 17 7 9 1029.4 1029.4 0.0
25/09:00pm 10.6 7.5 8.9 89 0.8 S 15 19 8 10 1029.5 1029.5 0.0
25/08:30pm 10.0 6.8 8.4 90 0.8 S 15 17 8 9 1029.7 1029.7 0.0
25/08:00pm 9.5 6.1 7.8 89 0.8 S 15 17 8 9 1029.6 1029.6 0.0
25/07:30pm 11.0 7.9 8.8 86 1.1 S 15 19 8 10 1029.3 1029.3 0.0
25/07:00pm 11.1 7.6 8.7 85 1.2 S 17 20 9 11 1029.2 1029.2 0.0
25/06:30pm 12.5 8.6 9.5 82 1.5 S 20 24 11 13 1029.4 1029.4 0.0
25/06:00pm 12.2 8.5 9.4 83 1.4 S 19 22 10 12 1029.3 1029.3 0.0
25/05:30pm 12.5 8.7 9.1 80 1.7 S 19 24 10 13 1029.1 1029.1 0.0
25/05:00pm 12.7 7.9 8.8 77 2.0 S 24 28 13 15 1028.9 1028.9 0.0
25/04:30pm 12.5 8.4 8.8 78 1.8 S 20 26 11 14 1028.8 1028.8 0.0
25/04:00pm 13.4 8.8 8.3 71 2.5 S 22 28 12 15 1028.6 1028.6 0.0
25/03:30pm 13.6 9.3 8.0 69 2.8 S 20 26 11 14 1028.8 1028.8 0.0
25/03:00pm 13.7 9.0 7.7 67 2.9 SSW 22 28 12 15 1028.9 1028.9 0.0

Other Formats:

Comma delimited format used in spreadsheet applications
http://www.bom.gov.au/fwo/IDS60801/IDS60801.94813.axf

JavaScript Object Notation format (JSON) in row-major order
http://www.bom.gov.au/fwo/IDS60801/IDS60801.94813.json